sensor_id;sensor_type;location;lat;lon;timestamp;P1;durP1;ratioP1;P2;durP2;ratioP2
27383;SDS011;14851;51.166;4.760;2023-03-05T00:01:53;7.18;;;3.97;;
27383;SDS011;14851;51.166;4.760;2023-03-05T00:04:19;12.30;;;4.60;;
27383;SDS011;14851;51.166;4.760;2023-03-05T00:06:45;7.22;;;4.03;;
27383;SDS011;14851;51.166;4.760;2023-03-05T00:09:11;8.52;;;4.45;;
27383;SDS011;14851;51.166;4.760;2023-03-05T00:11:37;9.50;;;4.25;;
27383;SDS011;14851;51.166;4.760;2023-03-05T00:14:04;10.80;;;4.95;;
27383;SDS011;14851;51.166;4.760;2023-03-05T00:16:32;7.95;;;4.35;;
27383;SDS011;14851;51.166;4.760;2023-03-05T00:18:58;10.55;;;4.07;;
27383;SDS011;14851;51.166;4.760;2023-03-05T00:21:29;7.68;;;4.18;;
27383;SDS011;14851;51.166;4.760;2023-03-05T00:23:57;7.90;;;3.97;;
27383;SDS011;14851;51.166;4.760;2023-03-05T00:26:27;7.20;;;3.47;;
27383;SDS011;14851;51.166;4.760;2023-03-05T00:28:56;8.73;;;4.03;;
27383;SDS011;14851;51.166;4.760;2023-03-05T00:31:25;8.75;;;3.97;;
27383;SDS011;14851;51.166;4.760;2023-03-05T00:33:55;9.38;;;4.25;;
27383;SDS011;14851;51.166;4.760;2023-03-05T00:36:23;8.93;;;4.60;;
27383;SDS011;14851;51.166;4.760;2023-03-05T00:38:49;10.15;;;4.78;;
27383;SDS011;14851;51.166;4.760;2023-03-05T00:41:17;8.55;;;4.05;;
27383;SDS011;14851;51.166;4.760;2023-03-05T00:43:43;10.20;;;4.43;;
27383;SDS011;14851;51.166;4.760;2023-03-05T00:46:09;11.02;;;4.55;;
27383;SDS011;14851;51.166;4.760;2023-03-05T00:48:34;6.93;;;3.55;;
27383;SDS011;14851;51.166;4.760;2023-03-05T00:51:00;9.77;;;4.32;;
27383;SDS011;14851;51.166;4.760;2023-03-05T00:53:27;7.25;;;4.03;;
27383;SDS011;14851;51.166;4.760;2023-03-05T00:55:53;7.93;;;4.50;;
27383;SDS011;14851;51.166;4.760;2023-03-05T00:58:19;9.27;;;4.90;;
27383;SDS011;14851;51.166;4.760;2023-03-05T01:00:45;8.55;;;5.40;;
27383;SDS011;14851;51.166;4.760;2023-03-05T01:03:17;11.75;;;4.97;;
27383;SDS011;14851;51.166;4.760;2023-03-05T01:05:43;10.07;;;4.70;;
27383;SDS011;14851;51.166;4.760;2023-03-05T01:08:12;8.82;;;4.18;;
27383;SDS011;14851;51.166;4.760;2023-03-05T01:10:41;8.38;;;4.45;;
27383;SDS011;14851;51.166;4.760;2023-03-05T01:13:06;10.40;;;4.68;;
27383;SDS011;14851;51.166;4.760;2023-03-05T01:15:36;9.57;;;4.25;;
27383;SDS011;14851;51.166;4.760;2023-03-05T01:18:01;11.88;;;4.63;;
27383;SDS011;14851;51.166;4.760;2023-03-05T01:20:28;12.85;;;4.68;;
27383;SDS011;14851;51.166;4.760;2023-03-05T01:22:53;6.32;;;4.18;;
27383;SDS011;14851;51.166;4.760;2023-03-05T01:25:19;10.77;;;4.25;;
27383;SDS011;14851;51.166;4.760;2023-03-05T01:27:45;12.80;;;4.25;;
27383;SDS011;14851;51.166;4.760;2023-03-05T01:30:13;12.18;;;4.93;;
27383;SDS011;14851;51.166;4.760;2023-03-05T01:32:40;10.50;;;4.63;;
27383;SDS011;14851;51.166;4.760;2023-03-05T01:35:06;8.85;;;4.13;;
27383;SDS011;14851;51.166;4.760;2023-03-05T01:37:33;6.90;;;4.03;;
27383;SDS011;14851;51.166;4.760;2023-03-05T01:39:59;7.90;;;3.92;;
27383;SDS011;14851;51.166;4.760;2023-03-05T01:42:24;15.77;;;4.88;;
27383;SDS011;14851;51.166;4.760;2023-03-05T01:45:05;9.50;;;3.40;;
27383;SDS011;14851;51.166;4.760;2023-03-05T01:47:36;13.07;;;3.80;;
27383;SDS011;14851;51.166;4.760;2023-03-05T01:50:08;7.80;;;3.30;;
27383;SDS011;14851;51.166;4.760;2023-03-05T01:52:42;9.82;;;3.85;;
27383;SDS011;14851;51.166;4.760;2023-03-05T01:55:16;7.22;;;3.40;;
27383;SDS011;14851;51.166;4.760;2023-03-05T01:57:45;7.45;;;3.35;;
27383;SDS011;14851;51.166;4.760;2023-03-05T02:02:40;12.60;;;3.75;;
27383;SDS011;14851;51.166;4.760;2023-03-05T02:05:28;9.20;;;4.05;;
27383;SDS011;14851;51.166;4.760;2023-03-05T02:07:59;13.48;;;4.05;;
27383;SDS011;14851;51.166;4.760;2023-03-05T02:10:31;8.98;;;3.42;;
27383;SDS011;14851;51.166;4.760;2023-03-05T02:13:01;10.35;;;4.22;;
27383;SDS011;14851;51.166;4.760;2023-03-05T02:15:29;10.07;;;4.00;;
27383;SDS011;14851;51.166;4.760;2023-03-05T02:17:56;10.82;;;4.25;;
27383;SDS011;14851;51.166;4.760;2023-03-05T02:20:23;14.05;;;4.00;;
27383;SDS011;14851;51.166;4.760;2023-03-05T02:22:53;9.15;;;3.83;;
27383;SDS011;14851;51.166;4.760;2023-03-05T02:25:24;9.18;;;4.07;;
27383;SDS011;14851;51.166;4.760;2023-03-05T02:30:46;12.70;;;3.67;;
27383;SDS011;14851;51.166;4.760;2023-03-05T02:33:13;11.23;;;3.92;;
27383;SDS011;14851;51.166;4.760;2023-03-05T02:35:40;11.65;;;4.57;;
27383;SDS011;14851;51.166;4.760;2023-03-05T02:38:09;12.65;;;4.40;;
27383;SDS011;14851;51.166;4.760;2023-03-05T02:40:36;10.07;;;4.43;;
27383;SDS011;14851;51.166;4.760;2023-03-05T02:43:02;10.30;;;4.20;;
27383;SDS011;14851;51.166;4.760;2023-03-05T02:45:31;9.43;;;4.32;;
27383;SDS011;14851;51.166;4.760;2023-03-05T02:47:57;11.88;;;3.80;;
27383;SDS011;14851;51.166;4.760;2023-03-05T02:50:22;12.35;;;3.50;;
27383;SDS011;14851;51.166;4.760;2023-03-05T02:52:50;8.48;;;3.20;;
27383;SDS011;14851;51.166;4.760;2023-03-05T02:55:17;13.43;;;4.13;;
27383;SDS011;14851;51.166;4.760;2023-03-05T02:57:43;10.45;;;4.13;;
27383;SDS011;14851;51.166;4.760;2023-03-05T03:00:11;12.15;;;5.25;;
27383;SDS011;14851;51.166;4.760;2023-03-05T03:02:37;13.13;;;5.78;;
27383;SDS011;14851;51.166;4.760;2023-03-05T03:05:04;11.95;;;5.20;;
27383;SDS011;14851;51.166;4.760;2023-03-05T03:07:30;15.45;;;6.85;;
27383;SDS011;14851;51.166;4.760;2023-03-05T03:09:58;10.73;;;5.25;;
27383;SDS011;14851;51.166;4.760;2023-03-05T03:12:24;11.13;;;3.90;;
27383;SDS011;14851;51.166;4.760;2023-03-05T03:14:50;11.55;;;4.53;;
27383;SDS011;14851;51.166;4.760;2023-03-05T03:17:17;11.98;;;4.05;;
27383;SDS011;14851;51.166;4.760;2023-03-05T03:19:43;15.75;;;6.75;;
27383;SDS011;14851;51.166;4.760;2023-03-05T03:22:10;12.90;;;5.53;;
27383;SDS011;14851;51.166;4.760;2023-03-05T03:24:41;8.95;;;4.10;;
27383;SDS011;14851;51.166;4.760;2023-03-05T03:27:08;12.88;;;4.65;;
27383;SDS011;14851;51.166;4.760;2023-03-05T03:29:34;9.40;;;4.00;;
27383;SDS011;14851;51.166;4.760;2023-03-05T03:32:00;9.85;;;3.78;;
27383;SDS011;14851;51.166;4.760;2023-03-05T03:34:26;8.48;;;4.40;;
27383;SDS011;14851;51.166;4.760;2023-03-05T03:36:54;11.63;;;4.80;;
27383;SDS011;14851;51.166;4.760;2023-03-05T03:39:22;9.77;;;4.60;;
27383;SDS011;14851;51.166;4.760;2023-03-05T03:41:51;11.05;;;6.40;;
27383;SDS011;14851;51.166;4.760;2023-03-05T03:44:18;15.13;;;6.75;;
27383;SDS011;14851;51.166;4.760;2023-03-05T03:46:45;10.32;;;5.32;;
27383;SDS011;14851;51.166;4.760;2023-03-05T03:49:13;14.32;;;7.10;;
27383;SDS011;14851;51.166;4.760;2023-03-05T03:51:45;12.13;;;5.53;;
27383;SDS011;14851;51.166;4.760;2023-03-05T03:54:12;13.95;;;4.50;;
27383;SDS011;14851;51.166;4.760;2023-03-05T03:56:39;10.13;;;4.40;;
27383;SDS011;14851;51.166;4.760;2023-03-05T03:59:04;12.02;;;5.07;;
27383;SDS011;14851;51.166;4.760;2023-03-05T04:01:30;12.18;;;5.65;;
27383;SDS011;14851;51.166;4.760;2023-03-05T04:03:56;16.23;;;6.47;;
27383;SDS011;14851;51.166;4.760;2023-03-05T04:06:24;17.85;;;6.95;;
27383;SDS011;14851;51.166;4.760;2023-03-05T04:08:50;17.20;;;6.68;;
27383;SDS011;14851;51.166;4.760;2023-03-05T04:11:16;17.23;;;7.50;;
27383;SDS011;14851;51.166;4.760;2023-03-05T04:13:44;19.60;;;9.35;;
27383;SDS011;14851;51.166;4.760;2023-03-05T04:16:10;16.15;;;7.28;;
27383;SDS011;14851;51.166;4.760;2023-03-05T04:18:37;16.70;;;6.22;;
27383;SDS011;14851;51.166;4.760;2023-03-05T04:21:03;11.32;;;5.18;;
27383;SDS011;14851;51.166;4.760;2023-03-05T04:23:29;10.95;;;4.65;;
27383;SDS011;14851;51.166;4.760;2023-03-05T04:25:56;12.90;;;5.43;;
27383;SDS011;14851;51.166;4.760;2023-03-05T04:28:24;17.23;;;5.97;;
27383;SDS011;14851;51.166;4.760;2023-03-05T04:30:50;10.98;;;5.22;;
27383;SDS011;14851;51.166;4.760;2023-03-05T04:33:21;13.35;;;4.93;;
27383;SDS011;14851;51.166;4.760;2023-03-05T04:35:47;14.00;;;6.05;;
27383;SDS011;14851;51.166;4.760;2023-03-05T04:38:14;14.73;;;5.82;;
27383;SDS011;14851;51.166;4.760;2023-03-05T04:40:40;12.70;;;6.15;;
27383;SDS011;14851;51.166;4.760;2023-03-05T04:43:06;12.32;;;5.63;;
27383;SDS011;14851;51.166;4.760;2023-03-05T04:45:34;17.58;;;6.57;;
27383;SDS011;14851;51.166;4.760;2023-03-05T04:48:05;11.98;;;5.28;;
27383;SDS011;14851;51.166;4.760;2023-03-05T04:50:32;15.15;;;6.07;;
27383;SDS011;14851;51.166;4.760;2023-03-05T04:53:00;14.73;;;6.53;;
27383;SDS011;14851;51.166;4.760;2023-03-05T04:55:28;19.27;;;7.45;;
27383;SDS011;14851;51.166;4.760;2023-03-05T04:57:55;13.30;;;6.25;;
27383;SDS011;14851;51.166;4.760;2023-03-05T05:00:21;12.25;;;6.07;;
27383;SDS011;14851;51.166;4.760;2023-03-05T05:02:48;11.70;;;5.53;;
27383;SDS011;14851;51.166;4.760;2023-03-05T05:05:17;13.70;;;7.72;;
27383;SDS011;14851;51.166;4.760;2023-03-05T05:07:48;12.27;;;6.68;;
27383;SDS011;14851;51.166;4.760;2023-03-05T05:10:20;12.13;;;6.70;;
27383;SDS011;14851;51.166;4.760;2023-03-05T05:12:46;18.30;;;7.20;;
27383;SDS011;14851;51.166;4.760;2023-03-05T05:15:13;13.75;;;7.28;;
27383;SDS011;14851;51.166;4.760;2023-03-05T05:17:39;13.75;;;7.45;;
27383;SDS011;14851;51.166;4.760;2023-03-05T05:20:11;14.88;;;8.32;;
27383;SDS011;14851;51.166;4.760;2023-03-05T05:22:38;13.63;;;7.05;;
27383;SDS011;14851;51.166;4.760;2023-03-05T05:25:04;15.93;;;7.28;;
27383;SDS011;14851;51.166;4.760;2023-03-05T05:27:33;12.48;;;6.47;;
27383;SDS011;14851;51.166;4.760;2023-03-05T05:29:59;14.00;;;7.57;;
27383;SDS011;14851;51.166;4.760;2023-03-05T05:32:25;11.90;;;7.45;;
27383;SDS011;14851;51.166;4.760;2023-03-05T05:34:53;14.98;;;7.50;;
27383;SDS011;14851;51.166;4.760;2023-03-05T05:39:51;16.15;;;8.00;;
27383;SDS011;14851;51.166;4.760;2023-03-05T05:42:17;12.88;;;7.72;;
27383;SDS011;14851;51.166;4.760;2023-03-05T05:47:16;16.27;;;7.95;;
27383;SDS011;14851;51.166;4.760;2023-03-05T05:49:42;17.77;;;7.28;;
27383;SDS011;14851;51.166;4.760;2023-03-05T05:52:08;15.23;;;8.98;;
27383;SDS011;14851;51.166;4.760;2023-03-05T05:54:34;16.58;;;8.02;;
27383;SDS011;14851;51.166;4.760;2023-03-05T05:57:01;14.15;;;8.30;;
27383;SDS011;14851;51.166;4.760;2023-03-05T05:59:28;16.80;;;8.35;;
27383;SDS011;14851;51.166;4.760;2023-03-05T06:01:55;12.25;;;8.27;;
27383;SDS011;14851;51.166;4.760;2023-03-05T06:04:22;13.65;;;8.57;;
27383;SDS011;14851;51.166;4.760;2023-03-05T06:06:50;15.65;;;8.77;;
27383;SDS011;14851;51.166;4.760;2023-03-05T06:09:18;15.38;;;8.50;;
27383;SDS011;14851;51.166;4.760;2023-03-05T06:11:46;15.55;;;8.73;;
27383;SDS011;14851;51.166;4.760;2023-03-05T06:14:12;15.02;;;9.32;;
27383;SDS011;14851;51.166;4.760;2023-03-05T06:16:39;18.15;;;9.73;;
27383;SDS011;14851;51.166;4.760;2023-03-05T06:19:12;18.80;;;10.20;;
27383;SDS011;14851;51.166;4.760;2023-03-05T06:21:39;18.13;;;10.63;;
27383;SDS011;14851;51.166;4.760;2023-03-05T06:24:07;15.75;;;9.38;;
27383;SDS011;14851;51.166;4.760;2023-03-05T06:26:34;14.25;;;9.52;;
27383;SDS011;14851;51.166;4.760;2023-03-05T06:29:00;19.80;;;9.65;;
27383;SDS011;14851;51.166;4.760;2023-03-05T06:31:27;15.32;;;9.10;;
27383;SDS011;14851;51.166;4.760;2023-03-05T06:33:56;17.35;;;10.20;;
27383;SDS011;14851;51.166;4.760;2023-03-05T06:36:28;15.98;;;9.48;;
27383;SDS011;14851;51.166;4.760;2023-03-05T06:38:54;16.35;;;9.10;;
27383;SDS011;14851;51.166;4.760;2023-03-05T06:41:22;15.80;;;9.02;;
27383;SDS011;14851;51.166;4.760;2023-03-05T06:43:51;16.45;;;9.05;;
27383;SDS011;14851;51.166;4.760;2023-03-05T06:46:18;16.45;;;9.70;;
27383;SDS011;14851;51.166;4.760;2023-03-05T06:48:46;12.68;;;8.77;;
27383;SDS011;14851;51.166;4.760;2023-03-05T06:51:13;16.55;;;9.27;;
27383;SDS011;14851;51.166;4.760;2023-03-05T06:53:44;14.23;;;8.93;;
27383;SDS011;14851;51.166;4.760;2023-03-05T06:56:10;17.33;;;9.63;;
27383;SDS011;14851;51.166;4.760;2023-03-05T07:01:08;15.50;;;9.10;;
27383;SDS011;14851;51.166;4.760;2023-03-05T07:03:34;18.02;;;10.23;;
27383;SDS011;14851;51.166;4.760;2023-03-05T07:06:02;14.60;;;8.93;;
27383;SDS011;14851;51.166;4.760;2023-03-05T07:08:32;16.35;;;10.15;;
27383;SDS011;14851;51.166;4.760;2023-03-05T07:10:58;16.42;;;10.32;;
27383;SDS011;14851;51.166;4.760;2023-03-05T07:13:24;20.88;;;9.60;;
27383;SDS011;14851;51.166;4.760;2023-03-05T07:15:51;14.45;;;9.50;;
27383;SDS011;14851;51.166;4.760;2023-03-05T07:18:19;13.07;;;8.82;;
27383;SDS011;14851;51.166;4.760;2023-03-05T07:20:45;17.27;;;8.88;;
27383;SDS011;14851;51.166;4.760;2023-03-05T07:23:12;14.52;;;8.55;;
27383;SDS011;14851;51.166;4.760;2023-03-05T07:25:38;15.13;;;9.57;;
27383;SDS011;14851;51.166;4.760;2023-03-05T07:28:04;16.50;;;9.52;;
27383;SDS011;14851;51.166;4.760;2023-03-05T07:30:31;19.80;;;9.15;;
27383;SDS011;14851;51.166;4.760;2023-03-05T07:33:01;13.35;;;9.50;;
27383;SDS011;14851;51.166;4.760;2023-03-05T07:35:28;13.40;;;9.25;;
27383;SDS011;14851;51.166;4.760;2023-03-05T07:37:54;18.73;;;9.43;;
27383;SDS011;14851;51.166;4.760;2023-03-05T07:40:20;13.23;;;7.75;;
27383;SDS011;14851;51.166;4.760;2023-03-05T07:42:48;14.13;;;9.43;;
27383;SDS011;14851;51.166;4.760;2023-03-05T07:45:26;11.60;;;8.07;;
27383;SDS011;14851;51.166;4.760;2023-03-05T07:47:52;12.63;;;9.02;;
27383;SDS011;14851;51.166;4.760;2023-03-05T07:50:18;14.00;;;8.50;;
27383;SDS011;14851;51.166;4.760;2023-03-05T07:52:43;16.63;;;8.95;;
27383;SDS011;14851;51.166;4.760;2023-03-05T07:55:16;11.50;;;7.95;;
27383;SDS011;14851;51.166;4.760;2023-03-05T07:57:42;13.63;;;8.55;;
27383;SDS011;14851;51.166;4.760;2023-03-05T08:00:11;13.20;;;8.35;;
27383;SDS011;14851;51.166;4.760;2023-03-05T08:02:38;11.27;;;8.02;;
27383;SDS011;14851;51.166;4.760;2023-03-05T08:05:04;14.38;;;8.25;;
27383;SDS011;14851;51.166;4.760;2023-03-05T08:07:30;12.13;;;8.20;;
27383;SDS011;14851;51.166;4.760;2023-03-05T08:09:56;11.38;;;7.78;;
27383;SDS011;14851;51.166;4.760;2023-03-05T08:12:22;14.32;;;8.15;;
27383;SDS011;14851;51.166;4.760;2023-03-05T08:14:48;14.98;;;8.35;;
27383;SDS011;14851;51.166;4.760;2023-03-05T08:17:15;12.73;;;8.48;;
27383;SDS011;14851;51.166;4.760;2023-03-05T08:19:41;18.60;;;11.88;;
27383;SDS011;14851;51.166;4.760;2023-03-05T08:22:09;15.55;;;10.63;;
27383;SDS011;14851;51.166;4.760;2023-03-05T08:24:35;15.05;;;9.50;;
27383;SDS011;14851;51.166;4.760;2023-03-05T08:27:02;10.93;;;8.52;;
27383;SDS011;14851;51.166;4.760;2023-03-05T08:29:28;13.50;;;9.63;;
27383;SDS011;14851;51.166;4.760;2023-03-05T08:31:56;13.48;;;10.25;;
27383;SDS011;14851;51.166;4.760;2023-03-05T08:34:22;12.93;;;9.93;;
27383;SDS011;14851;51.166;4.760;2023-03-05T08:36:48;14.35;;;9.85;;
27383;SDS011;14851;51.166;4.760;2023-03-05T08:39:14;12.82;;;9.30;;
27383;SDS011;14851;51.166;4.760;2023-03-05T08:41:41;14.13;;;8.30;;
27383;SDS011;14851;51.166;4.760;2023-03-05T08:44:07;14.15;;;9.00;;
27383;SDS011;14851;51.166;4.760;2023-03-05T08:46:33;13.60;;;8.55;;
27383;SDS011;14851;51.166;4.760;2023-03-05T08:48:59;10.93;;;7.75;;
27383;SDS011;14851;51.166;4.760;2023-03-05T08:51:28;10.33;;;7.40;;
27383;SDS011;14851;51.166;4.760;2023-03-05T08:53:59;9.55;;;7.32;;
27383;SDS011;14851;51.166;4.760;2023-03-05T08:56:28;9.57;;;7.18;;
27383;SDS011;14851;51.166;4.760;2023-03-05T08:58:55;9.25;;;6.93;;
27383;SDS011;14851;51.166;4.760;2023-03-05T09:01:21;10.38;;;7.28;;
27383;SDS011;14851;51.166;4.760;2023-03-05T09:03:49;9.15;;;7.25;;
27383;SDS011;14851;51.166;4.760;2023-03-05T09:06:15;10.15;;;6.75;;
27383;SDS011;14851;51.166;4.760;2023-03-05T09:08:42;6.28;;;4.88;;
27383;SDS011;14851;51.166;4.760;2023-03-05T09:11:08;5.75;;;5.03;;
27383;SDS011;14851;51.166;4.760;2023-03-05T09:13:37;8.02;;;5.88;;
27383;SDS011;14851;51.166;4.760;2023-03-05T09:16:03;7.53;;;6.38;;
27383;SDS011;14851;51.166;4.760;2023-03-05T09:18:31;7.63;;;6.90;;
27383;SDS011;14851;51.166;4.760;2023-03-05T09:21:04;11.57;;;6.72;;
27383;SDS011;14851;51.166;4.760;2023-03-05T09:23:33;12.43;;;7.53;;
27383;SDS011;14851;51.166;4.760;2023-03-05T09:25:59;12.23;;;8.15;;
27383;SDS011;14851;51.166;4.760;2023-03-05T09:28:25;9.10;;;7.97;;
27383;SDS011;14851;51.166;4.760;2023-03-05T09:30:51;8.57;;;7.68;;
27383;SDS011;14851;51.166;4.760;2023-03-05T09:33:18;9.52;;;8.07;;
27383;SDS011;14851;51.166;4.760;2023-03-05T09:35:44;11.77;;;10.00;;
27383;SDS011;14851;51.166;4.760;2023-03-05T09:38:11;10.07;;;8.00;;
27383;SDS011;14851;51.166;4.760;2023-03-05T09:40:41;10.75;;;7.47;;
27383;SDS011;14851;51.166;4.760;2023-03-05T09:48:52;7.82;;;5.78;;
27383;SDS011;14851;51.166;4.760;2023-03-05T09:51:27;10.63;;;6.75;;
27383;SDS011;14851;51.166;4.760;2023-03-05T09:54:03;8.00;;;5.90;;
27383;SDS011;14851;51.166;4.760;2023-03-05T09:57:11;5.68;;;4.95;;
27383;SDS011;14851;51.166;4.760;2023-03-05T09:59:50;6.20;;;4.90;;
27383;SDS011;14851;51.166;4.760;2023-03-05T10:02:29;7.53;;;5.53;;
27383;SDS011;14851;51.166;4.760;2023-03-05T10:05:16;8.38;;;4.85;;
27383;SDS011;14851;51.166;4.760;2023-03-05T10:07:43;6.78;;;4.88;;
27383;SDS011;14851;51.166;4.760;2023-03-05T10:10:19;6.28;;;4.38;;
27383;SDS011;14851;51.166;4.760;2023-03-05T10:12:55;6.07;;;3.92;;
27383;SDS011;14851;51.166;4.760;2023-03-05T10:29:12;6.93;;;3.78;;
27383;SDS011;14851;51.166;4.760;2023-03-05T10:31:45;4.90;;;3.90;;
27383;SDS011;14851;51.166;4.760;2023-03-05T10:45:51;7.88;;;4.43;;
27383;SDS011;14851;51.166;4.760;2023-03-05T10:48:26;7.65;;;4.57;;
27383;SDS011;14851;51.166;4.760;2023-03-05T10:50:58;6.95;;;5.40;;
27383;SDS011;14851;51.166;4.760;2023-03-05T10:56:03;2.20;;;1.80;;
27383;SDS011;14851;51.166;4.760;2023-03-05T10:58:31;6.55;;;1.92;;
27383;SDS011;14851;51.166;4.760;2023-03-05T11:01:04;4.57;;;2.08;;
27383;SDS011;14851;51.166;4.760;2023-03-05T11:06:43;2.85;;;1.10;;
27383;SDS011;14851;51.166;4.760;2023-03-05T11:09:23;3.53;;;1.00;;
27383;SDS011;14851;51.166;4.760;2023-03-05T11:14:34;4.68;;;1.30;;
27383;SDS011;14851;51.166;4.760;2023-03-05T11:17:10;4.35;;;2.72;;
27383;SDS011;14851;51.166;4.760;2023-03-05T11:19:54;4.15;;;2.50;;
27383;SDS011;14851;51.166;4.760;2023-03-05T11:22:22;5.72;;;3.28;;
27383;SDS011;14851;51.166;4.760;2023-03-05T11:27:49;209.32;;;12.10;;
27383;SDS011;14851;51.166;4.760;2023-03-05T11:30:28;5.32;;;4.82;;
27383;SDS011;14851;51.166;4.760;2023-03-05T11:33:17;5.22;;;4.70;;
27383;SDS011;14851;51.166;4.760;2023-03-05T11:35:49;6.97;;;6.00;;
27383;SDS011;14851;51.166;4.760;2023-03-05T11:38:19;7.10;;;6.00;;
27383;SDS011;14851;51.166;4.760;2023-03-05T11:40:50;8.23;;;6.60;;
27383;SDS011;14851;51.166;4.760;2023-03-05T11:43:20;7.90;;;7.10;;
27383;SDS011;14851;51.166;4.760;2023-03-05T11:45:48;7.22;;;6.53;;
27383;SDS011;14851;51.166;4.760;2023-03-05T11:51:15;8.85;;;7.60;;
27383;SDS011;14851;51.166;4.760;2023-03-05T11:53:50;8.77;;;7.10;;
27383;SDS011;14851;51.166;4.760;2023-03-05T11:56:26;8.00;;;7.20;;
27383;SDS011;14851;51.166;4.760;2023-03-05T11:59:03;9.38;;;7.20;;
27383;SDS011;14851;51.166;4.760;2023-03-05T12:01:51;4.63;;;2.20;;
27383;SDS011;14851;51.166;4.760;2023-03-05T12:04:18;1.92;;;1.10;;
27383;SDS011;14851;51.166;4.760;2023-03-05T12:09:22;3.83;;;1.00;;
27383;SDS011;14851;51.166;4.760;2023-03-05T12:17:30;1.67;;;0.88;;
27383;SDS011;14851;51.166;4.760;2023-03-05T12:20:14;2.70;;;1.10;;
27383;SDS011;14851;51.166;4.760;2023-03-05T12:22:52;1.77;;;0.80;;
27383;SDS011;14851;51.166;4.760;2023-03-05T12:27:58;2.58;;;1.15;;
27383;SDS011;14851;51.166;4.760;2023-03-05T12:38:45;4.00;;;1.30;;
27383;SDS011;14851;51.166;4.760;2023-03-05T12:49:45;4.97;;;1.20;;
27383;SDS011;14851;51.166;4.760;2023-03-05T12:51:56;3.40;;;1.45;;
27383;SDS011;14851;51.166;4.760;2023-03-05T12:54:35;3.53;;;1.15;;
27383;SDS011;14851;51.166;4.760;2023-03-05T12:57:16;2.95;;;1.20;;
27383;SDS011;14851;51.166;4.760;2023-03-05T13:04:58;5.00;;;1.60;;
27383;SDS011;14851;51.166;4.760;2023-03-05T13:07:32;9.85;;;4.25;;
27383;SDS011;14851;51.166;4.760;2023-03-05T13:09:58;4.60;;;1.80;;
27383;SDS011;14851;51.166;4.760;2023-03-05T13:12:28;2.88;;;1.55;;
27383;SDS011;14851;51.166;4.760;2023-03-05T13:15:06;1.90;;;1.27;;
27383;SDS011;14851;51.166;4.760;2023-03-05T13:23:15;4.93;;;1.85;;
27383;SDS011;14851;51.166;4.760;2023-03-05T13:28:35;5.72;;;1.98;;
27383;SDS011;14851;51.166;4.760;2023-03-05T13:31:09;5.80;;;1.90;;
27383;SDS011;14851;51.166;4.760;2023-03-05T13:33:52;3.67;;;2.08;;
27383;SDS011;14851;51.166;4.760;2023-03-05T13:36:21;4.25;;;2.33;;
27383;SDS011;14851;51.166;4.760;2023-03-05T13:38:51;3.00;;;1.60;;
27383;SDS011;14851;51.166;4.760;2023-03-05T13:41:19;4.45;;;1.95;;
27383;SDS011;14851;51.166;4.760;2023-03-05T13:44:00;3.53;;;1.60;;
27383;SDS011;14851;51.166;4.760;2023-03-05T13:46:31;2.42;;;1.77;;
27383;SDS011;14851;51.166;4.760;2023-03-05T13:51:54;5.18;;;1.80;;
27383;SDS011;14851;51.166;4.760;2023-03-05T13:54:22;4.35;;;1.73;;
27383;SDS011;14851;51.166;4.760;2023-03-05T13:56:50;3.60;;;1.90;;
27383;SDS011;14851;51.166;4.760;2023-03-05T13:59:22;3.58;;;1.73;;
27383;SDS011;14851;51.166;4.760;2023-03-05T14:01:51;4.82;;;2.13;;
27383;SDS011;14851;51.166;4.760;2023-03-05T14:04:28;4.50;;;1.30;;
27383;SDS011;14851;51.166;4.760;2023-03-05T14:09:30;2.28;;;1.00;;
27383;SDS011;14851;51.166;4.760;2023-03-05T14:23:41;6.30;;;1.15;;
27383;SDS011;14851;51.166;4.760;2023-03-05T14:28:58;3.53;;;1.50;;
27383;SDS011;14851;51.166;4.760;2023-03-05T14:31:30;1.75;;;1.17;;
27383;SDS011;14851;51.166;4.760;2023-03-05T14:34:02;4.55;;;1.70;;
27383;SDS011;14851;51.166;4.760;2023-03-05T14:36:30;1.98;;;1.50;;
27383;SDS011;14851;51.166;4.760;2023-03-05T14:38:57;3.67;;;1.90;;
27383;SDS011;14851;51.166;4.760;2023-03-05T14:41:32;3.95;;;1.75;;
27383;SDS011;14851;51.166;4.760;2023-03-05T14:43:58;4.45;;;1.95;;
27383;SDS011;14851;51.166;4.760;2023-03-05T14:46:27;3.60;;;0.70;;
27383;SDS011;14851;51.166;4.760;2023-03-05T14:48:53;2.70;;;0.85;;
27383;SDS011;14851;51.166;4.760;2023-03-05T14:51:19;2.90;;;1.00;;
27383;SDS011;14851;51.166;4.760;2023-03-05T14:53:46;2.58;;;0.90;;
27383;SDS011;14851;51.166;4.760;2023-03-05T15:01:11;3.08;;;1.00;;
27383;SDS011;14851;51.166;4.760;2023-03-05T15:03:37;2.35;;;0.95;;
27383;SDS011;14851;51.166;4.760;2023-03-05T15:06:05;3.75;;;1.27;;
27383;SDS011;14851;51.166;4.760;2023-03-05T15:08:40;1.75;;;0.85;;
27383;SDS011;14851;51.166;4.760;2023-03-05T15:11:08;3.80;;;0.90;;
27383;SDS011;14851;51.166;4.760;2023-03-05T15:13:34;5.18;;;1.50;;
27383;SDS011;14851;51.166;4.760;2023-03-05T15:16:00;3.45;;;1.13;;
27383;SDS011;14851;51.166;4.760;2023-03-05T15:18:28;2.45;;;1.02;;
27383;SDS011;14851;51.166;4.760;2023-03-05T15:20:54;2.78;;;1.00;;
27383;SDS011;14851;51.166;4.760;2023-03-05T15:23:21;6.22;;;1.33;;
27383;SDS011;14851;51.166;4.760;2023-03-05T15:25:49;1.80;;;0.88;;
27383;SDS011;14851;51.166;4.760;2023-03-05T15:28:17;3.28;;;1.25;;
27383;SDS011;14851;51.166;4.760;2023-03-05T15:30:45;1.92;;;1.00;;
27383;SDS011;14851;51.166;4.760;2023-03-05T15:33:13;3.13;;;1.17;;
27383;SDS011;14851;51.166;4.760;2023-03-05T15:35:42;6.40;;;1.70;;
27383;SDS011;14851;51.166;4.760;2023-03-05T15:38:09;2.47;;;1.58;;
27383;SDS011;14851;51.166;4.760;2023-03-05T15:40:34;4.22;;;2.03;;
27383;SDS011;14851;51.166;4.760;2023-03-05T15:43:00;5.50;;;2.85;;
27383;SDS011;14851;51.166;4.760;2023-03-05T15:45:28;3.65;;;1.63;;
27383;SDS011;14851;51.166;4.760;2023-03-05T15:47:55;4.10;;;1.73;;
27383;SDS011;14851;51.166;4.760;2023-03-05T15:50:23;3.55;;;1.60;;
27383;SDS011;14851;51.166;4.760;2023-03-05T15:52:50;3.55;;;2.10;;
27383;SDS011;14851;51.166;4.760;2023-03-05T15:55:16;4.43;;;1.70;;
27383;SDS011;14851;51.166;4.760;2023-03-05T15:57:43;4.93;;;1.98;;
27383;SDS011;14851;51.166;4.760;2023-03-05T16:00:11;2.45;;;1.70;;
27383;SDS011;14851;51.166;4.760;2023-03-05T16:02:39;7.07;;;1.80;;
27383;SDS011;14851;51.166;4.760;2023-03-05T16:05:06;3.40;;;1.92;;
27383;SDS011;14851;51.166;4.760;2023-03-05T16:07:34;3.40;;;1.85;;
27383;SDS011;14851;51.166;4.760;2023-03-05T16:10:03;1.98;;;1.25;;
27383;SDS011;14851;51.166;4.760;2023-03-05T16:12:30;6.32;;;1.63;;
27383;SDS011;14851;51.166;4.760;2023-03-05T16:15:08;3.08;;;1.50;;
27383;SDS011;14851;51.166;4.760;2023-03-05T16:17:39;5.95;;;1.77;;
27383;SDS011;14851;51.166;4.760;2023-03-05T16:20:08;6.70;;;4.07;;
27383;SDS011;14851;51.166;4.760;2023-03-05T16:22:35;3.92;;;2.10;;
27383;SDS011;14851;51.166;4.760;2023-03-05T16:25:01;3.13;;;1.98;;
27383;SDS011;14851;51.166;4.760;2023-03-05T16:27:27;4.82;;;2.53;;
27383;SDS011;14851;51.166;4.760;2023-03-05T16:29:53;5.32;;;3.08;;
27383;SDS011;14851;51.166;4.760;2023-03-05T16:32:19;4.40;;;2.83;;
27383;SDS011;14851;51.166;4.760;2023-03-05T16:34:45;10.52;;;3.80;;
27383;SDS011;14851;51.166;4.760;2023-03-05T16:37:19;5.03;;;3.15;;
27383;SDS011;14851;51.166;4.760;2023-03-05T16:39:47;9.15;;;4.25;;
27383;SDS011;14851;51.166;4.760;2023-03-05T16:42:13;9.18;;;5.35;;
27383;SDS011;14851;51.166;4.760;2023-03-05T16:44:41;7.80;;;4.47;;
27383;SDS011;14851;51.166;4.760;2023-03-05T16:47:10;10.35;;;5.53;;
27383;SDS011;14851;51.166;4.760;2023-03-05T16:49:38;12.38;;;6.68;;
27383;SDS011;14851;51.166;4.760;2023-03-05T16:52:04;14.27;;;6.88;;
27383;SDS011;14851;51.166;4.760;2023-03-05T16:54:31;12.82;;;7.50;;